Главная страница
METAR-TAF:

METAR-TAF

Аэропорты :

Екатеринбург, Россия

Кольцово

широта: 56-50N, долгота: 060-38E, высота над уровнем моря: 237 м

Текущие метеонаблюдения

Эта сводка был подготовлена 18 минут назад, в 07:00 UTC
Ветер 8 Узел от западный-юго-западный, изменяющийся между южный-юго-западный и северо-западный
Температура 13°C
Влажность 33%
Давление 1025 hPa
Видимость 10 км и более
Нет облачности ниже 1500 м, и нет кучево-дождевой облачности

METAR: USSS 290700Z 24004MPS 200V310 CAVOK 13/M03 Q1025 R26R/010060 NOSIG RMK QFE748/0997

Время: 12:18 (07:18 UTC)

Прогноз

Эта сводка был подготовлена 2 часа и 19 минут назад, в 04:59 UTC
Прогноз действительный с 29-го 06 UTC до 30-го 06 UTC
Ветер 8 Узел от западный
Видимость 10 км и более
Отдельные облака на высоте 1100 фута
Отдельные облака на высоте 3000 фута, Кучево-дождевые.
временами
С 29-го 06 UTC до 29-го 18 UTC
Ветер 17 Узел от западно-северо-западный

TAF: USSS 290459Z 2906/3006 28004MPS 9999 SCT011 SCT030CB TEMPO 2906/2918 30009MPS

Метеонаблюдения и прогнозы для более 4000 аэропортов (сводки METAR и TAF).

Имеющиеся станции представлены на карте желтыми и красными точками.

Чтобы увидеть название станции, наведите на нее мышь.

Затем щелкните, чтобы увидеть метеонаблюдения и метеопрогнозы.

Управление картой: чтобы увеличить масштаб, щелкните зеленые кнопки с черным крестиком; чтобы уменьшить масштаб, щелкните зеленую кнопку с тире; для просмотра соседних карт щелкайте зеленые стрелки.


METAR-TAF: